Time,TemperatureF,DewpointF,PressureIn,WindDirection,WindDirectionDegrees,WindSpeedMPH,WindSpeedGustMPH,Humidity,HourlyPrecipIn,Conditions,Clouds,dailyrainin,SoftwareType,DateUTC
2013-02-22 00:04:00,19.8,14.0,30.09,NNE,22,4.1,8.1,78,0.00,CLR,CLR,0.00,WeatherDisplay:10.37,2013-02-22 06:04:00,
2013-02-22 00:09:00,19.6,13.8,30.09,NE,45,7.7,9.2,78,0.00,CLR,CLR,0.00,WeatherDisplay:10.37,2013-02-22 06:09:00,
2013-02-22 00:14:00,19.6,13.8,30.09,NE,45,5.4,5.8,78,0.00,CLR,CLR,0.00,WeatherDisplay:10.37,2013-02-22 06:14:00,
2013-02-22 00:19:00,19.6,13.8,30.08,NNE,22,4.3,6.9,78,0.00,CLR,CLR,0.00,WeatherDisplay:10.37,2013-02-22 06:19:00,
2013-02-22 00:24:00,19.6,13.8,30.09,ENE,68,3.7,4.6,78,0.00,CLR,CLR,0.00,WeatherDisplay:10.37,2013-02-22 06:24:00,
2013-02-22 00:30:00,19.6,13.8,30.08,North,0,8.8,10.4,78,0.00,CLR,CLR,0.00,WeatherDisplay:10.37,2013-02-22 06:30:00,
2013-02-22 00:35:00,19.6,14.1,30.09,ENE,68,3.0,6.9,79,0.00,CLR,CLR,0.00,WeatherDisplay:10.37,2013-02-22 06:35:00,
2013-02-22 00:40:00,19.6,14.1,30.08,North,0,4.9,9.8,79,0.00,CLR,CLR,0.00,WeatherDisplay:10.37,2013-02-22 06:40:00,
2013-02-22 00:45:00,19.6,14.1,30.07,NNE,22,4.7,5.8,79,0.00,CLR,CLR,0.00,WeatherDisplay:10.37,2013-02-22 06:45:00,
2013-02-22 00:51:00,19.6,14.1,30.07,North,0,5.8,9.2,79,0.00,CLR,CLR,0.00,WeatherDisplay:10.37,2013-02-22 06:51:00,
2013-02-22 00:56:00,19.6,14.1,30.07,NNW,338,4.6,8.1,79,0.00,CLR,CLR,0.00,WeatherDisplay:10.37,2013-02-22 06:56:00,
2013-02-22 01:01:00,19.6,14.4,30.07,North,0,5.6,5.8,80,0.00,CLR,CLR,0.00,WeatherDisplay:10.37,2013-02-22 07:01:00,
2013-02-22 01:06:00,19.6,14.4,30.06,ENE,68,4.2,6.9,80,0.00,CLR,CLR,0.00,WeatherDisplay:10.37,2013-02-22 07:06:00,
2013-02-22 01:11:00,19.6,14.4,30.06,ENE,68,3.9,6.0,80,0.00,CLR,CLR,0.00,WeatherDisplay:10.37,2013-02-22 07:11:00,
2013-02-22 01:17:00,19.6,14.4,30.05,ENE,68,8.2,12.7,80,0.00,CLR,CLR,0.00,WeatherDisplay:10.37,2013-02-22 07:17:00,
2013-02-22 01:22:00,19.6,14.4,30.05,NE,45,5.1,9.2,80,0.00,CLR,CLR,0.00,WeatherDisplay:10.37,2013-02-22 07:22:00,
2013-02-22 01:27:00,19.6,14.4,30.05,NNE,22,3.9,6.9,80,0.00,CLR,CLR,0.00,WeatherDisplay:10.37,2013-02-22 07:27:00,
2013-02-22 01:32:00,19.6,14.4,30.04,North,0,4.8,9.2,80,0.00,CLR,CLR,0.00,WeatherDisplay:10.37,2013-02-22 07:32:00,
2013-02-22 01:38:00,19.8,14.9,30.04,North,0,4.2,5.8,81,0.00,CLR,CLR,0.00,WeatherDisplay:10.37,2013-02-22 07:38:00,
2013-02-22 01:43:00,19.9,14.8,30.05,East,90,5.6,9.2,80,0.00,CLR,CLR,0.00,WeatherDisplay:10.37,2013-02-22 07:43:00,
2013-02-22 01:48:00,19.9,15.0,30.04,North,0,7.7,8.1,81,0.00,CLR,CLR,0.00,WeatherDisplay:10.37,2013-02-22 07:48:00,
2013-02-22 01:53:00,19.9,15.0,30.04,ENE,68,5.9,10.3,81,0.00,CLR,CLR,0.00,WeatherDisplay:10.37,2013-02-22 07:53:00,
2013-02-22 01:59:00,19.9,15.0,30.04,ENE,68,4.3,10.5,81,0.00,CLR,CLR,0.00,WeatherDisplay:10.37,2013-02-22 07:59:00,
2013-02-22 02:04:00,20.1,15.2,30.03,North,0,7.0,9.2,81,0.00,CLR,CLR,0.00,WeatherDisplay:10.37,2013-02-22 08:04:00,
2013-02-22 02:09:00,19.9,15.0,30.03,NE,45,6.5,8.1,81,0.00,CLR,CLR,0.00,WeatherDisplay:10.37,2013-02-22 08:09:00,
2013-02-22 02:14:00,19.9,15.0,30.03,SE,135,7.8,11.5,81,0.00,CLR,CLR,0.00,WeatherDisplay:10.37,2013-02-22 08:14:00,
2013-02-22 02:20:00,20.1,15.2,30.02,East,90,5.8,9.2,81,0.00,CLR,CLR,0.00,WeatherDisplay:10.37,2013-02-22 08:20:00,
2013-02-22 02:25:00,19.9,15.0,30.03,East,90,5.5,6.9,81,0.00,CLR,CLR,0.00,WeatherDisplay:10.37,2013-02-22 08:25:00,
2013-02-22 02:30:00,20.1,15.2,30.03,East,90,5.5,5.5,81,0.00,CLR,CLR,0.00,WeatherDisplay:10.37,2013-02-22 08:30:00,
2013-02-22 02:35:00,20.1,15.2,30.02,NE,45,6.5,13.8,81,0.00,CLR,CLR,0.00,WeatherDisplay:10.37,2013-02-22 08:35:00,
2013-02-22 02:40:00,20.1,15.2,30.02,ENE,68,4.3,9.8,81,0.00,CLR,CLR,0.00,WeatherDisplay:10.37,2013-02-22 08:40:00,
2013-02-22 02:46:00,20.3,15.4,30.01,NNE,22,4.8,6.9,81,0.00,CLR,CLR,0.00,WeatherDisplay:10.37,2013-02-22 08:46:00,
2013-02-22 02:51:00,20.3,15.4,30.01,North,0,6.3,8.1,81,0.00,CLR,CLR,0.00,WeatherDisplay:10.37,2013-02-22 08:51:00,
2013-02-22 02:56:00,20.3,15.4,30.00,NNE,22,6.2,11.5,81,0.00,CLR,CLR,0.00,WeatherDisplay:10.37,2013-02-22 08:56:00,
2013-02-22 03:01:00,20.5,15.6,30.00,NNE,22,4.4,6.7,81,0.00,CLR,CLR,0.00,WeatherDisplay:10.37,2013-02-22 09:01:00,
2013-02-22 03:07:00,20.5,15.6,30.00,North,0,5.8,9.2,81,0.00,CLR,CLR,0.00,WeatherDisplay:10.37,2013-02-22 09:07:00,
2013-02-22 03:12:00,20.5,15.6,30.00,ENE,68,3.7,6.9,81,0.00,CLR,CLR,0.00,WeatherDisplay:10.37,2013-02-22 09:12:00,
2013-02-22 03:17:00,20.5,15.6,29.99,NNE,22,4.6,8.1,81,0.00,CLR,CLR,0.00,WeatherDisplay:10.37,2013-02-22 09:17:00,
2013-02-22 03:22:00,20.5,15.6,30.00,North,0,4.9,9.2,81,0.00,CLR,CLR,0.00,WeatherDisplay:10.37,2013-02-22 09:22:00,
2013-02-22 03:27:00,20.8,15.9,29.99,ENE,68,3.4,6.9,81,0.00,CLR,CLR,0.00,WeatherDisplay:10.37,2013-02-22 09:27:00,
2013-02-22 03:32:00,20.8,15.9,29.99,East,90,3.9,5.8,81,0.00,CLR,CLR,0.00,WeatherDisplay:10.37,2013-02-22 09:32:00,
2013-02-22 03:38:00,20.8,15.9,29.99,ENE,68,6.9,11.5,81,0.00,CLR,CLR,0.00,WeatherDisplay:10.37,2013-02-22 09:38:00,
2013-02-22 03:43:00,20.8,15.9,29.99,NNE,22,8.7,10.4,81,0.00,CLR,CLR,0.00,WeatherDisplay:10.37,2013-02-22 09:43:00,
2013-02-22 03:48:00,20.8,15.9,29.99,East,90,2.9,6.9,81,0.00,CLR,CLR,0.00,WeatherDisplay:10.37,2013-02-22 09:48:00,
2013-02-22 03:54:00,20.8,15.9,29.99,NNE,22,3.4,6.9,81,0.00,CLR,CLR,0.00,WeatherDisplay:10.37,2013-02-22 09:54:00,
2013-02-22 03:59:00,20.8,16.2,29.98,NNE,22,4.5,6.9,82,0.00,CLR,CLR,0.00,WeatherDisplay:10.37,2013-02-22 09:59:00,
2013-02-22 04:04:00,20.8,16.2,29.98,NE,45,3.9,5.8,82,0.00,CLR,CLR,0.00,WeatherDisplay:10.37,2013-02-22 10:04:00,
2013-02-22 04:09:00,20.8,16.2,29.98,ENE,68,2.8,7.6,82,0.00,CLR,CLR,0.00,WeatherDisplay:10.37,2013-02-22 10:09:00,
2013-02-22 04:14:00,20.8,16.5,29.99,NNE,22,3.3,5.8,83,0.00,CLR,CLR,0.00,WeatherDisplay:10.37,2013-02-22 10:14:00,
2013-02-22 04:20:00,20.8,16.5,29.99,NE,45,2.9,5.8,83,0.00,CLR,CLR,0.00,WeatherDisplay:10.37,2013-02-22 10:20:00,
2013-02-22 04:25:00,20.8,16.5,29.99,NNE,22,2.4,3.5,83,0.00,CLR,CLR,0.00,WeatherDisplay:10.37,2013-02-22 10:25:00,
2013-02-22 04:30:00,20.8,16.5,29.99,NNE,22,1.9,3.1,83,0.00,CLR,CLR,0.00,WeatherDisplay:10.37,2013-02-22 10:30:00,
2013-02-22 04:35:00,20.8,16.5,29.98,NNE,22,3.6,6.9,83,0.00,CLR,CLR,0.00,WeatherDisplay:10.37,2013-02-22 10:35:00,
2013-02-22 04:41:00,20.8,16.5,29.98,NNE,22,4.3,6.9,83,0.00,CLR,CLR,0.00,WeatherDisplay:10.37,2013-02-22 10:41:00,
2013-02-22 04:46:00,20.8,16.5,29.98,ENE,68,1.8,3.5,83,0.00,CLR,CLR,0.00,WeatherDisplay:10.37,2013-02-22 10:46:00,
2013-02-22 04:51:00,20.8,16.5,29.98,NE,45,1.8,3.5,83,0.00,CLR,CLR,0.00,WeatherDisplay:10.37,2013-02-22 10:51:00,
2013-02-22 04:56:00,20.8,16.5,29.98,NNE,22,1.7,2.9,83,0.00,CLR,CLR,0.00,WeatherDisplay:10.37,2013-02-22 10:56:00,
2013-02-22 05:01:00,20.8,16.8,29.98,NNE,22,2.6,3.5,84,0.00,CLR,CLR,0.00,WeatherDisplay:10.37,2013-02-22 11:01:00,
2013-02-22 05:07:00,20.8,16.8,29.98,NNE,22,3.0,3.5,84,0.00,CLR,CLR,0.00,WeatherDisplay:10.37,2013-02-22 11:07:00,
2013-02-22 05:12:00,20.8,16.8,29.98,North,0,2.6,2.6,84,0.00,CLR,CLR,0.00,WeatherDisplay:10.37,2013-02-22 11:12:00,
2013-02-22 05:17:00,20.8,16.8,29.97,NNE,22,2.4,3.5,84,0.00,CLR,CLR,0.00,WeatherDisplay:10.37,2013-02-22 11:17:00,
2013-02-22 05:23:00,20.8,16.8,29.97,North,0,3.9,5.8,84,0.00,CLR,CLR,0.00,WeatherDisplay:10.37,2013-02-22 11:23:00,
2013-02-22 05:28:00,20.8,16.8,29.97,NNE,22,3.2,4.6,84,0.00,CLR,CLR,0.00,WeatherDisplay:10.37,2013-02-22 11:28:00,
2013-02-22 05:33:00,20.8,16.8,29.97,North,0,2.4,3.8,84,0.00,CLR,CLR,0.00,WeatherDisplay:10.37,2013-02-22 11:33:00,
2013-02-22 05:38:00,20.8,16.8,29.97,NNE,22,3.1,4.9,84,0.00,CLR,CLR,0.00,WeatherDisplay:10.37,2013-02-22 11:38:00,
2013-02-22 05:44:00,20.8,16.8,29.97,NNE,22,1.8,2.3,84,0.00,CLR,CLR,0.00,WeatherDisplay:10.37,2013-02-22 11:44:00,
2013-02-22 05:49:00,20.8,16.8,29.97,North,0,0.9,3.8,84,0.00,CLR,CLR,0.00,WeatherDisplay:10.37,2013-02-22 11:49:00,
2013-02-22 05:54:00,20.8,16.8,29.97,North,0,1.3,2.3,84,0.00,CLR,CLR,0.00,WeatherDisplay:10.37,2013-02-22 11:54:00,
2013-02-22 05:59:00,20.8,16.8,29.97,NE,45,1.6,2.3,84,0.00,CLR,CLR,0.00,WeatherDisplay:10.37,2013-02-22 11:59:00,
2013-02-22 06:05:00,20.8,16.8,29.97,North,0,2.6,3.5,84,0.00,CLR,CLR,0.00,WeatherDisplay:10.37,2013-02-22 12:05:00,
2013-02-22 06:10:00,20.8,16.8,29.97,NNE,22,2.8,3.5,84,0.00,CLR,CLR,0.00,WeatherDisplay:10.37,2013-02-22 12:10:00,
2013-02-22 06:15:00,20.5,16.7,29.96,NNE,22,3.0,4.6,85,0.00,CLR,CLR,0.00,WeatherDisplay:10.37,2013-02-22 12:15:00,
2013-02-22 06:21:00,20.7,16.9,29.96,North,0,2.9,3.5,85,0.00,CLR,CLR,0.00,WeatherDisplay:10.37,2013-02-22 12:21:00,
2013-02-22 06:26:00,20.5,16.7,29.96,NE,45,1.0,1.6,85,0.00,CLR,CLR,0.00,WeatherDisplay:10.37,2013-02-22 12:26:00,
2013-02-22 06:31:00,20.5,16.7,29.96,North,0,3.5,3.5,85,0.00,CLR,CLR,0.00,WeatherDisplay:10.37,2013-02-22 12:31:00,
2013-02-22 06:36:00,20.5,16.7,29.96,North,0,2.9,3.5,85,0.00,CLR,CLR,0.00,WeatherDisplay:10.37,2013-02-22 12:36:00,
2013-02-22 06:41:00,20.5,16.7,29.96,NNE,22,1.4,3.5,85,0.00,CLR,CLR,0.00,WeatherDisplay:10.37,2013-02-22 12:41:00,
2013-02-22 06:46:00,20.5,16.7,29.96,NNE,22,4.4,5.8,85,0.00,CLR,CLR,0.00,WeatherDisplay:10.37,2013-02-22 12:46:00,
2013-02-22 06:52:00,20.5,16.7,29.95,NNE,22,2.1,4.6,85,0.00,CLR,CLR,0.00,WeatherDisplay:10.37,2013-02-22 12:52:00,
2013-02-22 06:57:00,20.5,16.7,29.96,NE,45,2.9,3.5,85,0.00,CLR,CLR,0.00,WeatherDisplay:10.37,2013-02-22 12:57:00,
2013-02-22 07:02:00,20.5,16.7,29.96,NNE,22,2.9,3.5,85,0.00,CLR,CLR,0.00,WeatherDisplay:10.37,2013-02-22 13:02:00,
2013-02-22 07:07:00,20.5,16.7,29.96,NNE,22,1.6,3.5,85,0.00,CLR,CLR,0.00,WeatherDisplay:10.37,2013-02-22 13:07:00,
2013-02-22 07:13:00,20.5,16.7,29.96,NNE,22,2.5,3.5,85,0.00,CLR,CLR,0.00,WeatherDisplay:10.37,2013-02-22 13:13:00,
2013-02-22 07:18:00,20.5,16.7,29.96,North,0,1.9,2.5,85,0.00,CLR,CLR,0.00,WeatherDisplay:10.37,2013-02-22 13:18:00,
2013-02-22 07:23:00,20.5,16.7,29.96,NNE,22,3.4,4.7,85,0.00,CLR,CLR,0.00,WeatherDisplay:10.37,2013-02-22 13:23:00,
2013-02-22 07:28:00,20.5,16.7,29.96,NNE,22,3.7,4.6,85,0.00,CLR,CLR,0.00,WeatherDisplay:10.37,2013-02-22 13:28:00,
2013-02-22 07:33:00,20.5,16.7,29.95,NNE,22,5.1,6.9,85,0.00,CLR,CLR,0.00,WeatherDisplay:10.37,2013-02-22 13:33:00,
2013-02-22 07:39:00,20.5,16.7,29.95,North,0,1.9,6.0,85,0.00,CLR,CLR,0.00,WeatherDisplay:10.37,2013-02-22 13:39:00,
2013-02-22 07:44:00,20.5,16.4,29.95,NE,45,2.7,5.8,84,0.00,CLR,CLR,0.00,WeatherDisplay:10.37,2013-02-22 13:44:00,
2013-02-22 07:49:00,20.5,16.4,29.95,NNE,22,3.8,4.6,84,0.00,CLR,CLR,0.00,WeatherDisplay:10.37,2013-02-22 13:49:00,
2013-02-22 07:54:00,20.5,16.4,29.95,North,0,4.5,5.8,84,0.00,CLR,CLR,0.00,WeatherDisplay:10.37,2013-02-22 13:54:00,
2013-02-22 08:00:00,20.8,16.8,29.95,NE,45,4.1,4.6,84,0.00,CLR,CLR,0.00,WeatherDisplay:10.37,2013-02-22 14:00:00,
2013-02-22 08:05:00,21.0,16.9,29.95,NNE,22,2.2,4.6,84,0.00,CLR,CLR,0.00,WeatherDisplay:10.37,2013-02-22 14:05:00,
2013-02-22 08:10:00,21.4,17.0,29.95,NNE,22,4.1,5.1,83,0.00,CLR,CLR,0.00,WeatherDisplay:10.37,2013-02-22 14:10:00,
2013-02-22 08:15:00,21.4,17.0,29.95,North,0,2.9,4.5,83,0.00,CLR,CLR,0.00,WeatherDisplay:10.37,2013-02-22 14:15:00,
2013-02-22 08:20:00,21.6,17.2,29.95,ENE,68,3.6,3.6,83,0.00,CLR,CLR,0.00,WeatherDisplay:10.37,2013-02-22 14:20:00,
2013-02-22 08:25:00,21.9,17.5,29.95,North,0,4.2,8.5,83,0.00,CLR,CLR,0.00,WeatherDisplay:10.37,2013-02-22 14:25:00,
2013-02-22 08:31:00,22.1,17.4,29.95,NNE,22,2.9,4.6,82,0.00,CLR,CLR,0.00,WeatherDisplay:10.37,2013-02-22 14:31:00,
2013-02-22 08:36:00,22.5,17.8,29.95,North,0,6.4,8.1,82,0.00,CLR,CLR,0.00,WeatherDisplay:10.37,2013-02-22 14:36:00,
2013-02-22 08:41:00,22.8,18.1,29.95,NE,45,4.8,6.9,82,0.00,CLR,CLR,0.00,WeatherDisplay:10.37,2013-02-22 14:41:00,
2013-02-22 08:46:00,23.4,18.4,29.95,NNE,22,5.1,6.9,81,0.00,CLR,CLR,0.00,WeatherDisplay:10.37,2013-02-22 14:46:00,
2013-02-22 08:52:00,23.7,18.7,29.94,NNE,22,5.6,10.4,81,0.00,CLR,CLR,0.00,WeatherDisplay:10.37,2013-02-22 14:52:00,
2013-02-22 08:57:00,24.1,18.8,29.94,NNE,22,4.5,5.8,80,0.00,CLR,CLR,0.00,WeatherDisplay:10.37,2013-02-22 14:57:00,
2013-02-22 09:02:00,24.4,18.9,29.93,NNE,22,2.3,5.8,79,0.00,CLR,CLR,0.00,WeatherDisplay:10.37,2013-02-22 15:02:00,
2013-02-22 09:07:00,24.6,19.0,29.93,NNE,22,4.7,8.3,79,0.00,CLR,CLR,0.00,WeatherDisplay:10.37,2013-02-22 15:07:00,
2013-02-22 09:12:00,25.2,19.3,29.93,NNE,22,4.4,5.8,78,0.00,CLR,CLR,0.00,WeatherDisplay:10.37,2013-02-22 15:12:00,
2013-02-22 09:18:00,25.2,19.3,29.93,North,0,5.8,8.1,78,0.00,CLR,CLR,0.00,WeatherDisplay:10.37,2013-02-22 15:18:00,
2013-02-22 09:23:00,25.5,19.3,29.93,NNE,22,3.3,9.2,77,0.00,CLR,CLR,0.00,WeatherDisplay:10.37,2013-02-22 15:23:00,
2013-02-22 09:28:00,25.9,19.7,29.93,North,0,4.4,10.4,77,0.00,CLR,CLR,0.00,WeatherDisplay:10.37,2013-02-22 15:28:00,
2013-02-22 09:33:00,26.4,20.2,29.93,NNE,22,6.5,9.2,77,0.00,CLR,CLR,0.00,WeatherDisplay:10.37,2013-02-22 15:33:00,
2013-02-22 09:39:00,26.8,20.2,29.93,North,0,6.4,8.1,76,0.00,CLR,CLR,0.00,WeatherDisplay:10.37,2013-02-22 15:39:00,
2013-02-22 09:44:00,26.4,19.6,29.92,NNE,22,5.9,9.2,75,0.00,CLR,CLR,0.00,WeatherDisplay:10.37,2013-02-22 15:44:00,
2013-02-22 09:49:00,26.1,19.2,29.93,NE,45,6.5,10.4,75,0.00,CLR,CLR,0.00,WeatherDisplay:10.37,2013-02-22 15:49:00,
2013-02-22 09:54:00,25.9,19.0,29.93,North,0,4.5,4.6,75,0.00,CLR,CLR,0.00,WeatherDisplay:10.37,2013-02-22 15:54:00,
2013-02-22 09:59:00,26.4,19.6,29.92,North,0,4.5,5.8,75,0.00,CLR,CLR,0.00,WeatherDisplay:10.37,2013-02-22 15:59:00,
2013-02-22 10:05:00,26.6,19.7,29.93,NE,45,5.2,6.9,75,0.00,CLR,CLR,0.00,WeatherDisplay:10.37,2013-02-22 16:05:00,
2013-02-22 10:10:00,27.3,20.4,29.92,NNE,22,3.6,5.8,75,0.00,CLR,CLR,0.00,WeatherDisplay:10.37,2013-02-22 16:10:00,
2013-02-22 10:15:00,28.4,21.2,29.92,NNE,22,6.4,6.9,74,0.00,CLR,CLR,0.00,WeatherDisplay:10.37,2013-02-22 16:15:00,
2013-02-22 10:20:00,29.1,21.5,29.92,ENE,68,3.8,9.2,73,0.00,CLR,CLR,0.00,WeatherDisplay:10.37,2013-02-22 16:20:00,
2013-02-22 10:25:00,29.8,21.9,29.92,NNE,22,5.3,8.1,72,0.00,CLR,CLR,0.00,WeatherDisplay:10.37,2013-02-22 16:25:00,
2013-02-22 10:30:00,29.5,20.9,29.92,North,0,8.9,12.7,70,0.00,CLR,CLR,0.00,WeatherDisplay:10.37,2013-02-22 16:30:00,
2013-02-22 10:36:00,28.9,20.7,29.92,NNE,22,2.3,4.6,71,0.00,CLR,CLR,0.00,WeatherDisplay:10.37,2013-02-22 16:36:00,
2013-02-22 10:41:00,29.5,21.2,29.92,SSW,202,5.0,6.9,71,0.00,CLR,CLR,0.00,WeatherDisplay:10.37,2013-02-22 16:41:00,
2013-02-22 10:46:00,30.4,22.1,29.92,ENE,68,5.3,5.8,71,0.00,CLR,CLR,0.00,WeatherDisplay:10.37,2013-02-22 16:46:00,
2013-02-22 10:51:00,30.9,21.9,29.92,NE,45,2.3,5.8,69,0.00,CLR,CLR,0.00,WeatherDisplay:10.37,2013-02-22 16:51:00,
2013-02-22 10:56:00,31.1,21.8,29.92,NNE,22,4.7,5.8,68,0.00,CLR,CLR,0.00,WeatherDisplay:10.37,2013-02-22 16:56:00,
2013-02-22 11:02:00,30.9,21.6,29.92,North,0,4.0,5.8,68,0.00,CLR,CLR,0.00,WeatherDisplay:10.37,2013-02-22 17:02:00,
2013-02-22 11:07:00,31.3,21.9,29.92,NNE,22,2.1,4.6,68,0.00,CLR,CLR,0.00,WeatherDisplay:10.37,2013-02-22 17:07:00,
2013-02-22 11:12:00,31.3,21.6,29.91,NE,45,5.4,10.4,67,0.00,CLR,CLR,0.00,WeatherDisplay:10.37,2013-02-22 17:12:00,
2013-02-22 11:17:00,30.7,21.1,29.92,NNE,22,4.9,8.1,67,0.00,CLR,CLR,0.00,WeatherDisplay:10.37,2013-02-22 17:17:00,
2013-02-22 11:22:00,30.6,20.9,29.91,NNE,22,4.5,6.9,67,0.00,CLR,CLR,0.00,WeatherDisplay:10.37,2013-02-22 17:22:00,
2013-02-22 11:28:00,30.2,20.9,29.91,ENE,68,2.9,5.1,68,0.00,CLR,CLR,0.00,WeatherDisplay:10.37,2013-02-22 17:28:00,
2013-02-22 11:33:00,30.4,20.7,29.91,NNE,22,4.7,5.8,67,0.00,CLR,CLR,0.00,WeatherDisplay:10.37,2013-02-22 17:33:00,
2013-02-22 11:38:00,30.6,20.9,29.91,NE,45,4.7,8.1,67,0.00,CLR,CLR,0.00,WeatherDisplay:10.37,2013-02-22 17:38:00,
2013-02-22 11:43:00,30.9,21.2,29.91,NW,315,3.8,4.6,67,0.00,CLR,CLR,0.00,WeatherDisplay:10.37,2013-02-22 17:43:00,
2013-02-22 11:48:00,31.3,21.6,29.90,North,0,4.3,9.2,67,0.00,CLR,CLR,0.00,WeatherDisplay:10.37,2013-02-22 17:48:00,
2013-02-22 11:54:00,31.3,21.6,29.90,NE,45,3.8,4.6,67,0.00,CLR,CLR,0.00,WeatherDisplay:10.37,2013-02-22 17:54:00,
2013-02-22 11:59:00,31.3,21.6,29.91,NNE,22,6.5,8.1,67,0.00,CLR,CLR,0.00,WeatherDisplay:10.37,2013-02-22 17:59:00,
2013-02-22 12:04:00,31.3,21.2,29.90,NNE,22,5.9,8.1,66,0.00,CLR,CLR,0.00,WeatherDisplay:10.37,2013-02-22 18:04:00,
2013-02-22 12:09:00,31.3,21.6,29.90,North,0,6.1,8.1,67,0.00,CLR,CLR,0.00,WeatherDisplay:10.37,2013-02-22 18:09:00,
2013-02-22 12:15:00,31.3,21.6,29.90,NNE,22,4.6,5.8,67,0.00,CLR,CLR,0.00,WeatherDisplay:10.37,2013-02-22 18:15:00,
2013-02-22 12:20:00,31.6,21.9,29.89,North,0,5.6,10.4,67,0.00,CLR,CLR,0.00,WeatherDisplay:10.37,2013-02-22 18:20:00,
2013-02-22 12:25:00,31.6,21.6,29.90,ENE,68,5.8,8.1,66,0.00,CLR,CLR,0.00,WeatherDisplay:10.37,2013-02-22 18:25:00,
2013-02-22 12:30:00,31.8,21.7,29.89,NNE,22,6.0,10.4,66,0.00,CLR,CLR,0.00,WeatherDisplay:10.37,2013-02-22 18:30:00,
2013-02-22 12:35:00,31.8,21.7,29.89,North,0,5.7,6.3,66,0.00,CLR,CLR,0.00,WeatherDisplay:10.37,2013-02-22 18:35:00,
2013-02-22 12:41:00,32.2,21.7,29.88,North,0,6.6,10.4,65,0.00,CLR,CLR,0.00,WeatherDisplay:10.37,2013-02-22 18:41:00,
2013-02-22 12:46:00,31.8,21.4,29.88,North,0,4.6,6.9,65,0.00,CLR,CLR,0.00,WeatherDisplay:10.37,2013-02-22 18:46:00,
2013-02-22 12:51:00,32.2,21.7,29.88,North,0,4.1,5.8,65,0.00,CLR,CLR,0.00,WeatherDisplay:10.37,2013-02-22 18:51:00,
2013-02-22 12:56:00,32.5,22.1,29.88,North,0,6.9,9.2,65,0.00,CLR,CLR,0.00,WeatherDisplay:10.37,2013-02-22 18:56:00,
2013-02-22 13:02:00,32.7,21.9,29.88,NNE,22,4.9,9.2,64,0.00,CLR,CLR,0.00,WeatherDisplay:10.37,2013-02-22 19:02:00,
2013-02-22 13:07:00,32.9,22.0,29.87,North,0,5.1,8.1,64,0.00,CLR,CLR,0.00,WeatherDisplay:10.37,2013-02-22 19:07:00,
2013-02-22 13:12:00,33.3,21.6,29.87,NNE,22,6.2,9.2,62,0.00,CLR,CLR,0.00,WeatherDisplay:10.37,2013-02-22 19:12:00,
2013-02-22 13:17:00,32.7,21.1,29.87,NNE,22,4.3,5.8,62,0.00,CLR,CLR,0.00,WeatherDisplay:10.37,2013-02-22 19:17:00,
2013-02-22 13:23:00,32.9,21.7,29.87,ENE,68,3.4,3.5,63,0.00,CLR,CLR,0.00,WeatherDisplay:10.37,2013-02-22 19:23:00,
2013-02-22 13:28:00,33.4,22.2,29.87,North,0,4.7,5.8,63,0.00,CLR,CLR,0.00,WeatherDisplay:10.37,2013-02-22 19:28:00,
2013-02-22 13:33:00,33.1,21.5,29.87,NNE,22,5.1,5.1,62,0.00,CLR,CLR,0.00,WeatherDisplay:10.37,2013-02-22 19:33:00,
2013-02-22 13:38:00,34.0,22.7,29.87,NE,45,3.3,3.6,63,0.00,CLR,CLR,0.00,WeatherDisplay:10.37,2013-02-22 19:38:00,
2013-02-22 13:44:00,34.3,22.7,29.86,NNE,22,1.0,2.3,62,0.00,CLR,CLR,0.00,WeatherDisplay:10.37,2013-02-22 19:44:00,
2013-02-22 13:49:00,34.9,23.2,29.86,North,0,1.7,3.5,62,0.00,CLR,CLR,0.00,WeatherDisplay:10.37,2013-02-22 19:49:00,
2013-02-22 13:54:00,35.1,23.0,29.86,North,0,2.4,5.4,61,0.00,CLR,CLR,0.00,WeatherDisplay:10.37,2013-02-22 19:54:00,
2013-02-22 13:59:00,35.4,23.3,29.86,ENE,68,1.1,2.5,61,0.00,CLR,CLR,0.00,WeatherDisplay:10.37,2013-02-22 19:59:00,
2013-02-22 14:05:00,36.1,24.0,29.86,ENE,68,2.1,4.7,61,0.00,CLR,CLR,0.00,WeatherDisplay:10.37,2013-02-22 20:05:00,
2013-02-22 14:10:00,36.7,23.7,29.86,NE,45,0.7,3.5,59,0.00,CLR,CLR,0.00,WeatherDisplay:10.37,2013-02-22 20:10:00,
2013-02-22 14:15:00,37.2,24.2,29.86,ESE,112,2.3,3.5,59,0.00,CLR,CLR,0.00,WeatherDisplay:10.37,2013-02-22 20:15:00,
2013-02-22 14:20:00,37.9,24.5,29.86,North,0,0.8,0.0,58,0.00,CLR,CLR,0.00,WeatherDisplay:10.37,2013-02-22 20:20:00,
2013-02-22 14:25:00,37.9,24.0,29.86,NE,45,3.4,4.6,57,0.02,RA,RA,0.02,WeatherDisplay:10.37,2013-02-22 20:25:00,
2013-02-22 14:31:00,37.9,24.0,29.86,ENE,68,2.4,3.5,57,0.02,RA,RA,0.02,WeatherDisplay:10.37,2013-02-22 20:31:00,
2013-02-22 14:36:00,37.8,23.9,29.85,NNW,338,3.3,3.5,57,0.02,CLR,CLR,0.02,WeatherDisplay:10.37,2013-02-22 20:36:00,
2013-02-22 14:41:00,37.2,23.4,29.86,NW,315,1.4,2.3,57,0.02,CLR,CLR,0.02,WeatherDisplay:10.37,2013-02-22 20:41:00,
2013-02-22 14:46:00,37.2,23.8,29.86,NNW,338,3.5,4.6,58,0.02,CLR,CLR,0.02,WeatherDisplay:10.37,2013-02-22 20:46:00,
2013-02-22 14:52:00,36.9,23.0,29.86,North,0,3.0,3.5,57,0.02,CLR,CLR,0.02,WeatherDisplay:10.37,2013-02-22 20:52:00,
2013-02-22 14:57:00,36.5,22.7,29.86,NNW,338,2.0,2.7,57,0.02,CLR,CLR,0.02,WeatherDisplay:10.37,2013-02-22 20:57:00,
2013-02-22 15:02:00,36.5,22.7,29.86,NNW,338,2.7,3.6,57,0.02,CLR,CLR,0.02,WeatherDisplay:10.37,2013-02-22 21:02:00,
2013-02-22 15:07:00,35.8,22.0,29.85,NNE,22,2.4,4.6,57,0.02,CLR,CLR,0.02,WeatherDisplay:10.37,2013-02-22 21:07:00,
2013-02-22 15:13:00,35.2,21.9,29.86,NW,315,3.2,4.6,58,0.02,CLR,CLR,0.02,WeatherDisplay:10.37,2013-02-22 21:13:00,
2013-02-22 15:18:00,35.1,22.2,29.86,NW,315,1.9,3.5,59,0.02,CLR,CLR,0.02,WeatherDisplay:10.37,2013-02-22 21:18:00,
2013-02-22 15:23:00,34.3,21.5,29.86,North,0,1.2,3.5,59,0.02,CLR,CLR,0.02,WeatherDisplay:10.37,2013-02-22 21:23:00,
2013-02-22 15:28:00,33.8,21.4,29.86,NW,315,0.6,1.3,60,0.00,CLR,CLR,0.02,WeatherDisplay:10.37,2013-02-22 21:28:00,
2013-02-22 15:34:00,33.6,21.2,29.86,West,270,0.4,1.2,60,0.00,CLR,CLR,0.02,WeatherDisplay:10.37,2013-02-22 21:34:00,
2013-02-22 15:39:00,33.3,21.3,29.87,WSW,248,0.2,1.2,61,0.00,CLR,CLR,0.02,WeatherDisplay:10.37,2013-02-22 21:39:00,
2013-02-22 15:44:00,32.5,21.0,29.87,NNW,338,0.5,2.3,62,0.00,CLR,CLR,0.02,WeatherDisplay:10.37,2013-02-22 21:44:00,
2013-02-22 15:49:00,31.8,20.3,29.87,NW,315,1.7,2.3,62,0.00,CLR,CLR,0.02,WeatherDisplay:10.37,2013-02-22 21:49:00,
2013-02-22 15:54:00,31.3,20.1,29.87,West,270,0.3,2.3,63,0.00,CLR,CLR,0.02,WeatherDisplay:10.37,2013-02-22 21:54:00,
2013-02-22 16:00:00,30.7,20.0,29.87,West,270,0.3,1.2,64,0.00,CLR,CLR,0.02,WeatherDisplay:10.37,2013-02-22 22:00:00,
2013-02-22 16:05:00,30.0,20.0,29.87,West,270,0.4,3.6,66,0.00,CLR,CLR,0.02,WeatherDisplay:10.37,2013-02-22 22:05:00,
2013-02-22 16:10:00,29.8,20.2,29.87,WSW,248,1.2,4.6,67,0.00,CLR,CLR,0.02,WeatherDisplay:10.37,2013-02-22 22:10:00,
2013-02-22 16:15:00,29.3,20.0,29.87,West,270,0.5,0.0,68,0.00,CLR,CLR,0.02,WeatherDisplay:10.37,2013-02-22 22:15:00,
2013-02-22 16:21:00,29.3,20.4,29.87,West,270,0.3,1.8,69,0.00,CLR,CLR,0.02,WeatherDisplay:10.37,2013-02-22 22:21:00,
2013-02-22 16:26:00,29.1,20.6,29.87,West,270,2.3,3.5,70,0.00,CLR,CLR,0.02,WeatherDisplay:10.37,2013-02-22 22:26:00,
2013-02-22 16:31:00,28.9,20.4,29.87,WSW,248,1.8,3.8,70,0.00,CLR,CLR,0.02,WeatherDisplay:10.37,2013-02-22 22:31:00,
2013-02-22 16:36:00,28.8,20.5,29.88,West,270,2.0,2.3,71,0.00,CLR,CLR,0.02,WeatherDisplay:10.37,2013-02-22 22:36:00,
2013-02-22 16:41:00,28.6,20.7,29.87,West,270,1.0,3.5,72,0.00,CLR,CLR,0.02,WeatherDisplay:10.37,2013-02-22 22:41:00,
2013-02-22 16:47:00,28.0,20.2,29.87,WNW,292,3.8,5.8,72,0.00,CLR,CLR,0.02,WeatherDisplay:10.37,2013-02-22 22:47:00,
2013-02-22 16:52:00,27.7,20.2,29.87,West,270,2.0,4.6,73,0.00,CLR,CLR,0.02,WeatherDisplay:10.37,2013-02-22 22:52:00,
2013-02-22 16:57:00,27.1,19.9,29.87,North,0,2.3,4.6,74,0.00,CLR,CLR,0.02,WeatherDisplay:10.37,2013-02-22 22:57:00,
2013-02-22 17:02:00,27.1,19.9,29.87,West,270,0.4,2.3,74,0.00,CLR,CLR,0.02,WeatherDisplay:10.37,2013-02-22 23:02:00,
2013-02-22 17:07:00,27.1,20.3,29.88,WNW,292,1.8,2.3,75,0.00,CLR,CLR,0.02,WeatherDisplay:10.37,2013-02-22 23:07:00,
2013-02-22 17:13:00,26.8,19.9,29.88,NW,315,2.4,4.6,75,0.00,CLR,CLR,0.02,WeatherDisplay:10.37,2013-02-22 23:13:00,
2013-02-22 17:18:00,26.4,19.9,29.88,West,270,3.7,5.8,76,0.00,CLR,CLR,0.02,WeatherDisplay:10.37,2013-02-22 23:18:00,
2013-02-22 17:23:00,26.4,19.9,29.88,WNW,292,3.7,5.8,76,0.00,CLR,CLR,0.02,WeatherDisplay:10.37,2013-02-22 23:23:00,
2013-02-22 17:28:00,26.1,19.8,29.87,WNW,292,2.5,4.5,77,0.00,CLR,CLR,0.02,WeatherDisplay:10.37,2013-02-22 23:28:00,
2013-02-22 17:33:00,25.9,19.7,29.88,NW,315,3.3,4.6,77,0.00,CLR,CLR,0.02,WeatherDisplay:10.37,2013-02-22 23:33:00,
2013-02-22 17:39:00,25.5,19.6,29.88,WNW,292,3.5,3.5,78,0.00,CLR,CLR,0.02,WeatherDisplay:10.37,2013-02-22 23:39:00,
2013-02-22 17:44:00,25.3,19.4,29.88,WNW,292,3.8,8.1,78,0.00,CLR,CLR,0.02,WeatherDisplay:10.37,2013-02-22 23:44:00,
2013-02-22 17:49:00,25.2,19.6,29.88,WNW,292,3.2,4.6,79,0.00,CLR,CLR,0.02,WeatherDisplay:10.37,2013-02-22 23:49:00,
2013-02-22 17:54:00,25.2,19.9,29.88,NW,315,3.5,5.8,80,0.00,CLR,CLR,0.02,WeatherDisplay:10.37,2013-02-22 23:54:00,
2013-02-22 18:00:00,25.0,19.7,29.88,West,270,2.1,3.5,80,0.00,CLR,CLR,0.02,WeatherDisplay:10.37,2013-02-23 00:00:00,
2013-02-22 18:05:00,25.0,19.7,29.87,WNW,292,2.7,3.5,80,0.00,CLR,CLR,0.02,WeatherDisplay:10.37,2013-02-23 00:05:00,
2013-02-22 18:10:00,25.0,20.0,29.87,West,270,2.9,6.9,81,0.00,CLR,CLR,0.02,WeatherDisplay:10.37,2013-02-23 00:10:00,
2013-02-22 18:15:00,24.6,19.6,29.88,West,270,2.3,3.5,81,0.00,CLR,CLR,0.02,WeatherDisplay:10.37,2013-02-23 00:15:00,
2013-02-22 18:21:00,24.6,19.6,29.88,WNW,292,3.1,4.6,81,0.00,CLR,CLR,0.02,WeatherDisplay:10.37,2013-02-23 00:21:00,
2013-02-22 18:26:00,24.6,19.6,29.88,WNW,292,3.1,3.5,81,0.00,CLR,CLR,0.02,WeatherDisplay:10.37,2013-02-23 00:26:00,
2013-02-22 18:31:00,24.6,19.9,29.88,WNW,292,3.2,4.6,82,0.00,CLR,CLR,0.02,WeatherDisplay:10.37,2013-02-23 00:31:00,
2013-02-22 18:36:00,24.6,19.9,29.88,WNW,292,3.9,5.8,82,0.00,CLR,CLR,0.02,WeatherDisplay:10.37,2013-02-23 00:36:00,
2013-02-22 18:42:00,24.4,19.7,29.88,WNW,292,3.9,5.8,82,0.00,CLR,CLR,0.02,WeatherDisplay:10.37,2013-02-23 00:42:00,
2013-02-22 18:47:00,24.4,19.7,29.88,WNW,292,3.1,3.5,82,0.00,CLR,CLR,0.02,WeatherDisplay:10.37,2013-02-23 00:47:00,
2013-02-22 18:52:00,24.4,19.7,29.88,West,270,2.8,4.6,82,0.00,CLR,CLR,0.02,WeatherDisplay:10.37,2013-02-23 00:52:00,
2013-02-22 18:57:00,24.1,19.4,29.88,WNW,292,2.5,3.5,82,0.00,CLR,CLR,0.02,WeatherDisplay:10.37,2013-02-23 00:57:00,
2013-02-22 19:02:00,24.1,19.4,29.88,WNW,292,2.4,3.5,82,0.00,CLR,CLR,0.02,WeatherDisplay:10.37,2013-02-23 01:02:00,
2013-02-22 19:08:00,24.1,19.4,29.88,WNW,292,0.5,1.2,82,0.00,CLR,CLR,0.02,WeatherDisplay:10.37,2013-02-23 01:08:00,
2013-02-22 19:13:00,24.1,19.7,29.88,WNW,292,2.1,4.6,83,0.00,CLR,CLR,0.02,WeatherDisplay:10.37,2013-02-23 01:13:00,
2013-02-22 19:18:00,24.1,19.7,29.88,WNW,292,0.7,1.2,83,0.00,CLR,CLR,0.02,WeatherDisplay:10.37,2013-02-23 01:18:00,
2013-02-22 19:23:00,24.1,19.7,29.88,WNW,292,2.0,3.5,83,0.00,CLR,CLR,0.02,WeatherDisplay:10.37,2013-02-23 01:23:00,
2013-02-22 19:28:00,24.1,19.7,29.87,WNW,292,1.6,2.3,83,0.00,CLR,CLR,0.02,WeatherDisplay:10.37,2013-02-23 01:28:00,
2013-02-22 19:33:00,24.1,19.7,29.88,WNW,292,1.5,2.3,83,0.00,CLR,CLR,0.02,WeatherDisplay:10.37,2013-02-23 01:33:00,
2013-02-22 19:39:00,23.9,19.5,29.88,WNW,292,0.1,1.8,83,0.00,CLR,CLR,0.02,WeatherDisplay:10.37,2013-02-23 01:39:00,
2013-02-22 19:44:00,23.9,19.5,29.88,West,270,0.6,1.2,83,0.00,CLR,CLR,0.02,WeatherDisplay:10.37,2013-02-23 01:44:00,
2013-02-22 19:49:00,23.9,19.5,29.87,West,270,0.6,2.3,83,0.00,CLR,CLR,0.02,WeatherDisplay:10.37,2013-02-23 01:49:00,
2013-02-22 19:55:00,23.7,19.3,29.87,West,270,0.2,2.3,83,0.00,CLR,CLR,0.02,WeatherDisplay:10.37,2013-02-23 01:55:00,
2013-02-22 20:00:00,23.7,19.3,29.87,West,270,1.3,3.6,83,0.00,CLR,CLR,0.02,WeatherDisplay:10.37,2013-02-23 02:00:00,
2013-02-22 20:05:00,23.7,19.3,29.88,West,270,0.5,2.3,83,0.00,CLR,CLR,0.02,WeatherDisplay:10.37,2013-02-23 02:05:00,
2013-02-22 20:10:00,23.7,19.3,29.87,West,270,1.5,2.3,83,0.00,CLR,CLR,0.02,WeatherDisplay:10.37,2013-02-23 02:10:00,
2013-02-22 20:15:00,23.7,19.3,29.87,West,270,2.5,3.5,83,0.00,CLR,CLR,0.02,WeatherDisplay:10.37,2013-02-23 02:15:00,
2013-02-22 20:21:00,23.5,19.1,29.88,WNW,292,2.2,3.5,83,0.00,CLR,CLR,0.02,WeatherDisplay:10.37,2013-02-23 02:21:00,
2013-02-22 20:26:00,23.5,19.1,29.87,West,270,1.7,3.5,83,0.00,CLR,CLR,0.02,WeatherDisplay:10.37,2013-02-23 02:26:00,
2013-02-22 20:31:00,23.5,19.1,29.87,West,270,1.3,3.6,83,0.00,CLR,CLR,0.02,WeatherDisplay:10.37,2013-02-23 02:31:00,
2013-02-22 20:36:00,23.4,19.0,29.87,WNW,292,1.9,3.5,83,0.00,CLR,CLR,0.02,WeatherDisplay:10.37,2013-02-23 02:36:00,
2013-02-22 20:41:00,23.4,19.2,29.87,West,270,1.9,3.5,84,0.00,CLR,CLR,0.02,WeatherDisplay:10.37,2013-02-23 02:41:00,
2013-02-22 20:47:00,23.4,19.2,29.87,West,270,0.2,2.3,84,0.00,CLR,CLR,0.02,WeatherDisplay:10.37,2013-02-23 02:47:00,
2013-02-22 20:52:00,23.4,19.2,29.87,WNW,292,1.6,2.3,84,0.00,CLR,CLR,0.02,WeatherDisplay:10.37,2013-02-23 02:52:00,
2013-02-22 20:57:00,23.4,19.2,29.87,West,270,2.2,3.5,84,0.00,CLR,CLR,0.02,WeatherDisplay:10.37,2013-02-23 02:57:00,
2013-02-22 21:02:00,23.4,19.2,29.86,West,270,0.3,2.3,84,0.00,CLR,CLR,0.02,WeatherDisplay:10.37,2013-02-23 03:02:00,
2013-02-22 21:07:00,23.4,19.2,29.87,West,270,0.5,2.3,84,0.00,CLR,CLR,0.02,WeatherDisplay:10.37,2013-02-23 03:07:00,
2013-02-22 21:13:00,23.4,19.2,29.86,West,270,0.4,2.3,84,0.00,CLR,CLR,0.02,WeatherDisplay:10.37,2013-02-23 03:13:00,
2013-02-22 21:18:00,23.2,19.1,29.86,West,270,0.6,1.6,84,0.00,CLR,CLR,0.02,WeatherDisplay:10.37,2013-02-23 03:18:00,
2013-02-22 21:23:00,23.2,19.1,29.86,West,270,1.2,3.1,84,0.00,CLR,CLR,0.02,WeatherDisplay:10.37,2013-02-23 03:23:00,
2013-02-22 21:28:00,23.2,19.1,29.86,West,270,1.3,3.5,84,0.00,CLR,CLR,0.02,WeatherDisplay:10.37,2013-02-23 03:28:00,
2013-02-22 21:34:00,23.0,18.9,29.86,West,270,2.3,3.5,84,0.00,CLR,CLR,0.02,WeatherDisplay:10.37,2013-02-23 03:34:00,
2013-02-22 21:39:00,23.2,19.1,29.85,WNW,292,1.7,2.3,84,0.00,CLR,CLR,0.02,WeatherDisplay:10.37,2013-02-23 03:39:00,
2013-02-22 21:44:00,23.2,19.1,29.85,WNW,292,3.1,8.1,84,0.00,CLR,CLR,0.02,WeatherDisplay:10.37,2013-02-23 03:44:00,
2013-02-22 21:49:00,23.2,19.1,29.85,West,270,2.6,3.6,84,0.00,CLR,CLR,0.02,WeatherDisplay:10.37,2013-02-23 03:49:00,
2013-02-22 21:55:00,23.0,18.9,29.84,West,270,1.3,2.3,84,0.00,CLR,CLR,0.02,WeatherDisplay:10.37,2013-02-23 03:55:00,
2013-02-22 22:00:00,23.0,18.9,29.85,West,270,1.6,2.3,84,0.00,CLR,CLR,0.02,WeatherDisplay:10.37,2013-02-23 04:00:00,
2013-02-22 22:05:00,23.0,18.9,29.85,West,270,1.5,3.5,84,0.00,CLR,CLR,0.02,WeatherDisplay:10.37,2013-02-23 04:05:00,
2013-02-22 22:10:00,22.8,18.7,29.84,West,270,1.9,2.3,84,0.00,CLR,CLR,0.02,WeatherDisplay:10.37,2013-02-23 04:10:00,
2013-02-22 22:16:00,22.8,18.7,29.84,WNW,292,1.0,2.3,84,0.00,CLR,CLR,0.02,WeatherDisplay:10.37,2013-02-23 04:16:00,
2013-02-22 22:21:00,22.8,18.7,29.84,West,270,2.4,3.5,84,0.00,CLR,CLR,0.02,WeatherDisplay:10.37,2013-02-23 04:21:00,
2013-02-22 22:26:00,22.8,18.7,29.85,West,270,2.7,3.5,84,0.00,CLR,CLR,0.02,WeatherDisplay:10.37,2013-02-23 04:26:00,
2013-02-22 22:31:00,22.8,18.7,29.84,West,270,1.8,3.5,84,0.00,CLR,CLR,0.02,WeatherDisplay:10.37,2013-02-23 04:31:00,
2013-02-22 22:36:00,22.8,18.7,29.84,WNW,292,1.2,2.3,84,0.00,CLR,CLR,0.02,WeatherDisplay:10.37,2013-02-23 04:36:00,
2013-02-22 22:42:00,22.6,18.5,29.85,West,270,2.0,3.5,84,0.00,CLR,CLR,0.02,WeatherDisplay:10.37,2013-02-23 04:42:00,
2013-02-22 22:47:00,22.6,18.8,29.84,West,270,0.6,1.8,85,0.00,CLR,CLR,0.02,WeatherDisplay:10.37,2013-02-23 04:47:00,
2013-02-22 22:52:00,22.6,18.8,29.85,West,270,2.9,3.5,85,0.00,CLR,CLR,0.02,WeatherDisplay:10.37,2013-02-23 04:52:00,
2013-02-22 22:57:00,22.6,18.8,29.85,WNW,292,1.9,2.3,85,0.00,CLR,CLR,0.02,WeatherDisplay:10.37,2013-02-23 04:57:00,
2013-02-22 23:00:00,22.6,18.8,29.85,West,270,0.6,5.1,85,0.00,CLR,CLR,0.00,WeatherDisplay:10.37,2013-02-23 05:00:00,
2013-02-22 23:01:00,22.6,18.8,29.85,West,270,1.1,2.3,85,0.00,CLR,CLR,0.00,WeatherDisplay:10.37,2013-02-23 05:01:00,
2013-02-22 23:06:00,22.6,18.8,29.85,West,270,0.8,2.3,85,0.00,CLR,CLR,0.00,WeatherDisplay:10.37,2013-02-23 05:06:00,
2013-02-22 23:11:00,22.6,18.8,29.85,WNW,292,1.3,2.3,85,0.00,CLR,CLR,0.00,WeatherDisplay:10.37,2013-02-23 05:11:00,
2013-02-22 23:16:00,22.6,18.5,29.84,West,270,0.7,2.3,84,0.00,CLR,CLR,0.00,WeatherDisplay:10.37,2013-02-23 05:16:00,
2013-02-22 23:22:00,22.5,18.4,29.85,WNW,292,2.8,4.6,84,0.00,CLR,CLR,0.00,WeatherDisplay:10.37,2013-02-23 05:22:00,
2013-02-22 23:27:00,22.3,18.5,29.84,West,270,0.8,3.5,85,0.00,CLR,CLR,0.00,WeatherDisplay:10.37,2013-02-23 05:27:00,
2013-02-22 23:32:00,22.3,18.5,29.84,WNW,292,2.4,2.9,85,0.00,CLR,CLR,0.00,WeatherDisplay:10.37,2013-02-23 05:32:00,
2013-02-22 23:37:00,22.1,18.3,29.84,West,270,1.6,2.5,85,0.00,CLR,CLR,0.00,WeatherDisplay:10.37,2013-02-23 05:37:00,
2013-02-22 23:43:00,21.9,18.1,29.85,West,270,2.8,3.6,85,0.00,CLR,CLR,0.00,WeatherDisplay:10.37,2013-02-23 05:43:00,
2013-02-22 23:48:00,21.9,18.1,29.85,WNW,292,2.3,3.5,85,0.00,CLR,CLR,0.00,WeatherDisplay:10.37,2013-02-23 05:48:00,
2013-02-22 23:53:00,21.9,18.1,29.85,West,270,1.2,4.6,85,0.00,CLR,CLR,0.00,WeatherDisplay:10.37,2013-02-23 05:53:00,
2013-02-22 23:58:00,21.9,18.1,29.85,West,270,1.3,2.3,85,0.00,CLR,CLR,0.00,WeatherDisplay:10.37,2013-02-23 05:58:00,